Terminal Aerodrome Forecast
Issued by NWS Denver/Boulder, CO

Home | Current Version | Previous Version | Text Only | Print | Product List | Glossary On
Versions: 1 2 3 4 5 6 7 8 9 10 11 12 13 14 15 16 17 18 19 20 21 22 23 24 25 26 27 28 29 30 31
000
FTUS45 KBOU 270215 AAA
TAFDEN
TAF AMD
KDEN 270215Z 2702/2806 02007KT P6SM BKN045
     FM270300 13005KT P6SM SCT050 BKN100
     FM270430 19006KT P6SM SCT100 BKN220
     FM270800 21007KT P6SM FEW120 SCT220
     FM271400 VRB06KT P6SM SCT120
     FM271900 15008KT P6SM FEW080 SCT120
     FM280300 19008KT P6SM SCT120 BKN220=

USA.gov is the U.S. government's official web portal to all federal, state and local government web resources and services.